Time;durP1;ratioP1;P1;durP2;ratioP2;P2;SDS_P1;SDS_P2;PMS_P1;PMS_P2;Temp;Humidity;BMP_temperature;BMP_pressure;BME280_temperature;BME280_humidity;BME280_pressure;Samples;Min_cycle;Max_cycle;Signal;HPM_P1;HPM_P2
2021/10/18 00:00:33;;;;;;;8.76;8.00;;;;;;;10.36;58.26;100897.47;465130;112;930407;-77
2021/10/18 00:01:36;;;;;;;12.07;8.72;;;;;;;10.33;58.27;100901.44;464136;113;922509;-79
2021/10/18 00:02:40;;;;;;;9.18;8.35;;;;;;;10.32;58.33;100904.36;464290;113;923067;-79
2021/10/18 00:03:43;;;;;;;8.53;7.82;;;;;;;10.29;58.31;100905.63;463863;113;923061;-78
2021/10/18 00:04:47;;;;;;;9.38;8.55;;;;;;;10.27;58.37;100899.53;463666;113;925750;-78
2021/10/18 00:05:50;;;;;;;10.79;7.97;;;;;;;10.24;58.45;100904.56;463973;113;923484;-78
2021/10/18 00:06:53;;;;;;;9.04;8.31;;;;;;;10.22;58.54;100899.30;464216;113;923052;-78
2021/10/18 00:07:57;;;;;;;8.94;8.18;;;;;;;10.21;58.61;100897.62;463774;113;922523;-79
2021/10/18 00:09:01;;;;;;;8.16;7.46;;;;;;;10.18;58.64;100898.05;464090;113;930591;-78
2021/10/18 00:10:06;;;;;;;8.29;7.61;;;;;;;10.17;58.66;100896.36;463788;113;930515;-78
2021/10/18 00:11:10;;;;;;;9.67;8.36;;;;;;;10.16;58.68;100896.52;464715;113;923403;-78
2021/10/18 00:12:15;;;;;;;9.98;8.99;;;;;;;10.12;58.79;100890.66;453715;115;923164;-78
2021/10/18 00:13:18;;;;;;;9.22;8.48;;;;;;;10.10;58.87;100898.17;454421;113;922764;-79
2021/10/18 00:14:22;;;;;;;10.38;9.49;;;;;;;10.08;58.88;100893.99;463705;113;930930;-79
2021/10/18 00:15:26;;;;;;;10.46;9.53;;;;;;;10.04;58.87;100899.83;463057;113;922721;-77
2021/10/18 00:16:31;;;;;;;10.07;9.18;;;;;;;10.03;58.92;100905.51;464157;113;922440;-76
2021/10/18 00:17:34;;;;;;;10.61;9.68;;;;;;;10.02;59.03;100907.39;465203;113;923039;-77
2021/10/18 00:18:38;;;;;;;11.72;10.69;;;;;;;10.01;59.07;100905.70;463870;113;930210;-78
2021/10/18 00:19:42;;;;;;;10.59;9.53;;;;;;;10.00;58.97;100901.29;465111;113;922910;-79
2021/10/18 00:20:45;;;;;;;11.96;9.51;;;;;;;9.97;58.94;100896.27;464814;113;930398;-78
2021/10/18 00:21:48;;;;;;;11.37;10.47;;;;;;;9.96;59.01;100900.02;465239;113;930497;-78
2021/10/18 00:22:53;;;;;;;10.75;9.85;;;;;;;9.96;59.04;100905.47;464653;113;930139;-78
2021/10/18 00:23:56;;;;;;;11.21;10.25;;;;;;;9.94;59.01;100903.98;464777;113;923040;-78
2021/10/18 00:24:59;;;;;;;11.66;10.72;;;;;;;9.93;59.04;100907.74;463386;113;922602;-78
2021/10/18 00:26:03;;;;;;;11.36;10.26;;;;;;;9.90;59.02;100908.16;464465;113;922632;-78
2021/10/18 00:27:07;;;;;;;10.61;9.68;;;;;;;9.88;59.04;100908.35;464526;113;930686;-78
2021/10/18 00:28:10;;;;;;;11.29;10.30;;;;;;;9.86;59.07;100904.17;464141;113;923039;-79
2021/10/18 00:29:13;;;;;;;11.81;10.59;;;;;;;9.83;59.11;100907.28;464712;113;923066;-79
2021/10/18 00:30:17;;;;;;;12.16;9.45;;;;;;;9.81;59.20;100909.38;457012;113;923260;-78
2021/10/18 00:31:21;;;;;;;9.79;8.89;;;;;;;9.79;59.19;100908.73;446334;117;922654;-78
2021/10/18 00:32:24;;;;;;;10.82;9.81;;;;;;;9.79;59.17;100906.85;455902;113;923119;-77
2021/10/18 00:33:28;;;;;;;10.40;9.21;;;;;;;9.79;59.18;100908.73;449542;117;926441;-78
2021/10/18 00:34:31;;;;;;;10.58;9.46;;;;;;;9.78;59.16;100913.34;449864;116;922602;-78
2021/10/18 00:35:34;;;;;;;9.12;8.32;;;;;;;9.77;59.14;100911.65;449000;118;922590;-78
2021/10/18 00:36:38;;;;;;;11.31;10.23;;;;;;;9.76;59.18;100911.87;451134;117;922243;-79
2021/10/18 00:37:41;;;;;;;9.63;8.83;;;;;;;9.75;59.18;100911.03;451416;117;922436;-79
2021/10/18 00:38:45;;;;;;;9.03;8.11;;;;;;;9.75;59.20;100913.75;441686;118;922781;-78
2021/10/18 00:39:48;;;;;;;9.27;8.41;;;;;;;9.74;59.23;100905.78;441759;118;930177;-79
2021/10/18 00:40:52;;;;;;;10.03;9.07;;;;;;;9.74;59.30;100908.50;444258;118;930865;-77
2021/10/18 00:41:55;;;;;;;9.73;8.28;;;;;;;9.75;59.31;100912.91;456121;113;930407;-78
2021/10/18 00:42:58;;;;;;;8.94;8.14;;;;;;;9.76;59.31;100909.16;449896;116;922731;-77
2021/10/18 00:44:02;;;;;;;8.99;8.20;;;;;;;9.75;59.21;100910.19;449650;117;922564;-78
2021/10/18 00:45:07;;;;;;;9.95;8.98;;;;;;;9.74;59.18;100911.22;444002;118;925052;-78
2021/10/18 00:46:12;;;;;;;9.22;8.35;;;;;;;9.73;59.14;100914.98;456220;113;922686;-78
2021/10/18 00:47:21;;;;;;;9.41;8.61;;;;;;;9.71;59.15;100909.73;454848;113;923389;-78
2021/10/18 00:48:25;;;;;;;9.04;8.22;;;;;;;9.71;59.13;100909.73;449292;116;922787;-77
2021/10/18 00:49:29;;;;;;;9.43;8.61;;;;;;;9.71;59.12;100909.73;445561;116;923002;-77
2021/10/18 00:50:32;;;;;;;8.30;7.56;;;;;;;9.72;59.17;100916.02;457023;113;930876;-77
2021/10/18 00:51:36;;;;;;;8.66;7.92;;;;;;;9.73;59.15;100909.53;448577;116;922654;-78
2021/10/18 00:52:40;;;;;;;9.20;8.26;;;;;;;9.75;59.09;100904.74;448262;116;923030;-78
2021/10/18 00:53:47;;;;;;;9.81;8.89;;;;;;;9.76;59.05;100903.70;447042;117;930559;-78
2021/10/18 00:54:52;;;;;;;8.79;8.01;;;;;;;9.77;59.04;100910.80;447699;117;922519;-79
2021/10/18 00:55:56;;;;;;;8.99;8.22;;;;;;;9.80;58.93;100913.14;448226;116;922620;-79
2021/10/18 00:57:00;;;;;;;10.91;8.23;;;;;;;9.80;58.93;100913.14;443481;118;930440;-78
2021/10/18 00:58:03;;;;;;;8.94;8.15;;;;;;;9.82;58.96;100902.87;443796;117;923252;-78
2021/10/18 00:59:07;;;;;;;8.78;7.96;;;;;;;9.83;58.89;100910.84;446337;117;922342;-78
2021/10/18 01:00:12;;;;;;;9.48;8.61;;;;;;;9.86;58.89;100912.34;447823;116;930619;-78
2021/10/18 01:01:16;;;;;;;8.65;7.85;;;;;;;9.88;58.95;100911.08;448976;117;923295;-77
2021/10/18 01:02:20;;;;;;;9.34;8.57;;;;;;;9.92;58.94;100906.09;447685;117;923431;-77
2021/10/18 01:03:26;;;;;;;9.41;8.47;;;;;;;9.95;58.86;100906.52;448127;117;930547;-78
2021/10/18 01:04:29;;;;;;;8.94;8.16;;;;;;;9.98;58.71;100908.81;448679;116;922651;-79
2021/10/18 01:05:35;;;;;;;9.85;8.91;;;;;;;10.01;58.62;100913.03;449546;117;922701;-78
2021/10/18 01:06:38;;;;;;;8.50;7.43;;;;;;;10.03;58.71;100914.48;447773;115;923264;-78
2021/10/18 01:07:42;;;;;;;8.47;7.76;;;;;;;10.08;58.93;100913.06;440949;118;923002;-78
2021/10/18 01:08:45;;;;;;;8.12;7.46;;;;;;;10.12;59.00;100907.00;441198;117;923140;-78
2021/10/18 01:09:49;;;;;;;8.34;7.53;;;;;;;10.15;59.02;100905.73;449239;117;922533;-78
2021/10/18 01:10:53;;;;;;;9.05;7.87;;;;;;;10.17;58.93;100903.69;448447;115;922725;-78
2021/10/18 01:11:56;;;;;;;9.43;8.59;;;;;;;10.19;58.84;100907.91;449159;116;922766;-78
2021/10/18 01:13:00;;;;;;;8.56;7.79;;;;;;;10.20;58.75;100909.56;447329;116;930568;-78
2021/10/18 01:14:03;;;;;;;9.38;7.52;;;;;;;10.22;58.55;100904.75;446274;117;923113;-78
2021/10/18 01:15:07;;;;;;;7.87;7.15;;;;;;;10.22;58.55;100904.75;447022;117;930530;-78
2021/10/18 01:16:12;;;;;;;7.72;7.02;;;;;;;10.24;58.38;100901.84;447112;116;923106;-77
2021/10/18 01:17:16;;;;;;;7.74;7.07;;;;;;;10.23;58.28;100906.44;447572;117;923167;-78
2021/10/18 01:18:20;;;;;;;7.21;6.61;;;;;;;10.25;58.16;100908.97;447992;117;922901;-77
2021/10/18 01:19:23;;;;;;;7.48;6.87;;;;;;;10.24;58.11;100901.84;446412;116;930370;-78
2021/10/18 01:20:36;;;;;;;7.79;7.06;;;;;;;10.24;58.12;100904.56;445896;117;922664;-77
2021/10/18 01:21:40;;;;;;;7.94;7.30;;;;;;;10.24;58.11;100908.13;447351;116;923119;-78
2021/10/18 01:22:43;;;;;;;7.58;6.83;;;;;;;10.24;58.07;100908.13;449261;117;923059;-78
2021/10/18 01:23:47;;;;;;;7.97;7.37;;;;;;;10.23;57.92;100903.72;448358;117;922477;-77
2021/10/18 01:24:50;;;;;;;7.65;6.88;;;;;;;10.23;57.92;100903.72;449173;117;922723;-78
2021/10/18 01:25:54;;;;;;;7.64;6.96;;;;;;;10.22;57.90;100904.75;448974;117;922555;-77
2021/10/18 01:26:58;;;;;;;7.73;7.16;;;;;;;10.20;57.85;100906.83;450038;117;922591;-78
2021/10/18 01:28:01;;;;;;;7.95;7.22;;;;;;;10.19;57.85;100909.78;448562;117;930624;-78
2021/10/18 01:29:05;;;;;;;7.61;7.04;;;;;;;10.17;57.90;100904.53;446206;116;930567;-77
2021/10/18 01:30:09;;;;;;;7.21;6.61;;;;;;;10.16;57.94;100913.74;446907;117;922533;-78
2021/10/18 01:31:13;;;;;;;7.68;6.99;;;;;;;10.16;58.01;100912.87;446533;117;922912;-77
2021/10/18 01:32:16;;;;;;;7.74;7.08;;;;;;;10.15;57.96;100906.58;447445;117;922799;-78
2021/10/18 01:33:20;;;;;;;7.61;6.95;;;;;;;10.14;58.03;100910.38;446687;116;923078;-78
2021/10/18 01:34:26;;;;;;;7.31;6.43;;;;;;;10.15;58.05;100903.85;446815;117;930612;-78
2021/10/18 01:35:29;;;;;;;8.37;7.67;;;;;;;10.16;58.02;100907.42;446487;117;923148;-77
2021/10/18 01:36:34;;;;;;;8.01;7.25;;;;;;;10.18;57.93;100916.27;443625;116;923172;-78
2021/10/18 01:37:37;;;;;;;7.88;7.18;;;;;;;10.17;57.89;100909.98;438432;119;922468;-78
2021/10/18 01:38:41;;;;;;;8.19;7.35;;;;;;;10.17;57.84;100909.14;444992;115;923069;-78
2021/10/18 01:39:44;;;;;;;7.06;6.44;;;;;;;10.16;57.79;100904.69;446009;118;922693;-77
2021/10/18 01:40:48;;;;;;;8.58;7.84;;;;;;;10.15;57.84;100920.20;445616;116;930576;-78
2021/10/18 01:41:51;;;;;;;9.04;8.24;;;;;;;10.14;57.96;100918.55;444027;116;923153;-78
2021/10/18 01:42:56;;;;;;;8.94;8.19;;;;;;;10.14;58.07;100913.09;444453;115;923087;-78
2021/10/18 01:43:59;;;;;;;9.93;8.89;;;;;;;10.15;58.15;100919.36;441937;118;922560;-78
2021/10/18 01:45:05;;;;;;;9.69;8.84;;;;;;;10.17;58.18;100914.59;443938;116;923184;-79
2021/10/18 01:46:09;;;;;;;10.42;9.49;;;;;;;10.18;58.17;100914.39;444438;116;930812;-78
2021/10/18 01:47:12;;;;;;;10.49;9.65;;;;;;;10.20;58.13;100916.92;445409;116;923384;-77
2021/10/18 01:48:15;;;;;;;11.02;10.01;;;;;;;10.21;58.14;100913.97;444042;118;922957;-78
2021/10/18 01:49:19;;;;;;;10.26;9.08;;;;;;;10.24;58.06;100912.73;444212;116;922879;-78
2021/10/18 01:50:25;;;;;;;10.57;9.63;;;;;;;10.24;58.01;100910.85;445943;116;923230;-77
2021/10/18 01:51:29;;;;;;;10.66;8.94;;;;;;;10.26;57.87;100921.52;446406;116;923248;-77
2021/10/18 01:52:32;;;;;;;10.13;9.13;;;;;;;10.23;57.81;100917.34;460735;114;923214;-78
2021/10/18 01:53:37;;;;;;;9.28;8.39;;;;;;;10.21;57.77;100913.97;463967;113;922503;-77
2021/10/18 01:54:40;;;;;;;10.89;8.96;;;;;;;10.17;57.77;100915.43;462879;113;923057;-79
2021/10/18 01:55:44;;;;;;;9.82;8.82;;;;;;;10.14;57.86;100924.00;463023;113;930511;-77
2021/10/18 01:56:47;;;;;;;11.63;9.18;;;;;;;10.12;57.94;100912.45;463859;113;922473;-78
2021/10/18 01:57:51;;;;;;;10.93;9.83;;;;;;;10.11;58.07;100921.66;462186;113;922830;-77
2021/10/18 01:58:54;;;;;;;9.48;8.68;;;;;;;10.10;58.13;100919.97;462134;113;922641;-78
2021/10/18 01:59:58;;;;;;;10.78;9.70;;;;;;;10.10;58.15;100924.58;462634;113;922486;-79
2021/10/18 02:01:03;;;;;;;10.98;9.94;;;;;;;10.10;58.12;100922.70;462470;113;923043;-78
2021/10/18 02:02:07;;;;;;;10.17;9.36;;;;;;;10.11;58.11;100931.72;461844;113;922475;-79
2021/10/18 02:03:12;;;;;;;11.85;10.64;;;;;;;10.10;58.04;100928.14;459198;113;923170;-78
2021/10/18 02:04:15;;;;;;;11.58;10.46;;;;;;;10.06;57.93;100915.98;462492;113;922791;-78
2021/10/18 02:05:19;;;;;;;11.85;10.80;;;;;;;10.03;57.90;100921.85;461702;113;922521;-77
2021/10/18 02:06:22;;;;;;;11.81;10.69;;;;;;;9.98;57.91;100921.59;448130;117;922393;-77
2021/10/18 02:07:26;;;;;;;11.27;10.25;;;;;;;9.94;57.99;100928.50;462227;113;922482;-78
2021/10/18 02:08:33;;;;;;;10.94;9.79;;;;;;;9.89;58.02;100922.81;464584;113;922965;-79
2021/10/18 02:09:34;;;;;;;11.03;9.86;;;;;;;9.85;58.07;100924.27;464733;113;922648;-77
2021/10/18 02:10:37;;;;;;;11.44;10.37;;;;;;;9.80;58.13;100924.87;464104;113;922906;-78
2021/10/18 02:11:41;;;;;;;13.35;9.76;;;;;;;9.77;58.17;100933.44;462124;113;922469;-77
2021/10/18 02:12:44;;;;;;;11.39;10.30;;;;;;;9.76;58.32;100931.75;463843;113;922435;-79
2021/10/18 02:13:48;;;;;;;10.72;9.84;;;;;;;9.74;58.47;100933.84;463544;113;923383;-76
2021/10/18 02:14:51;;;;;;;11.05;9.42;;;;;;;9.74;58.47;100933.01;462639;113;930592;-81
2021/10/18 02:15:55;;;;;;;11.28;10.24;;;;;;;9.72;58.46;100935.08;463705;113;922619;-79
2021/10/18 02:16:58;;;;;;;11.37;9.73;;;;;;;9.68;58.47;100933.80;462347;113;930543;-78
2021/10/18 02:18:02;;;;;;;10.19;9.26;;;;;;;9.65;58.48;100942.39;463134;113;930533;-78
2021/10/18 02:19:05;;;;;;;10.40;9.46;;;;;;;9.60;58.55;100935.64;463190;113;923111;-81
2021/10/18 02:20:12;;;;;;;10.42;9.19;;;;;;;9.57;58.58;100935.20;461809;113;922450;-79
2021/10/18 02:21:15;;;;;;;10.26;9.36;;;;;;;9.53;58.62;100933.94;462389;113;922499;-81
2021/10/18 02:22:18;;;;;;;10.91;10.01;;;;;;;9.49;58.70;100941.63;461359;113;922598;-78
2021/10/18 02:23:22;;;;;;;12.09;9.79;;;;;;;9.46;58.76;100938.48;462408;113;922567;-78
2021/10/18 02:24:26;;;;;;;10.55;9.59;;;;;;;9.43;58.82;100936.98;463004;113;923473;-79
2021/10/18 02:25:29;;;;;;;10.81;9.84;;;;;;;9.40;58.87;100942.84;461149;113;922561;-78
2021/10/18 02:26:33;;;;;;;11.12;9.96;;;;;;;9.37;58.92;100943.22;461600;113;923024;-78
2021/10/18 02:27:37;;;;;;;10.90;9.53;;;;;;;9.35;58.94;100941.75;462596;113;922493;-77
2021/10/18 02:28:40;;;;;;;10.63;9.72;;;;;;;9.32;59.00;100942.97;454128;114;922502;-78
2021/10/18 02:29:43;;;;;;;11.02;9.99;;;;;;;9.29;59.10;100942.53;463277;113;922906;-79
2021/10/18 02:30:48;;;;;;;9.48;8.69;;;;;;;9.26;59.16;100941.07;463005;113;922609;-77
2021/10/18 02:31:51;;;;;;;10.30;9.33;;;;;;;9.25;59.18;100939.38;462811;113;923240;-79
2021/10/18 02:32:55;;;;;;;9.84;9.00;;;;;;;9.24;59.22;100937.70;462360;113;922575;-79
2021/10/18 02:33:58;;;;;;;12.64;8.68;;;;;;;9.22;59.26;100939.76;463236;113;922495;-78
2021/10/18 02:35:01;;;;;;;9.53;8.72;;;;;;;9.20;59.32;100941.86;462636;113;922682;-79
2021/10/18 02:36:05;;;;;;;9.24;8.52;;;;;;;9.18;59.40;100939.33;463660;113;922825;-78
2021/10/18 02:37:08;;;;;;;9.46;8.64;;;;;;;9.16;59.45;100935.95;462504;113;922903;-77
2021/10/18 02:38:11;;;;;;;11.04;9.68;;;;;;;9.14;59.47;100940.77;463174;113;922573;-77
2021/10/18 02:39:15;;;;;;;10.58;9.26;;;;;;;9.14;59.50;100937.20;462370;113;922828;-79
2021/10/18 02:40:19;;;;;;;10.04;9.11;;;;;;;9.11;59.53;100943.02;462444;113;930490;-79
2021/10/18 02:41:23;;;;;;;9.31;8.40;;;;;;;9.08;59.63;100933.39;462025;113;923339;-78
2021/10/18 02:42:26;;;;;;;9.79;8.78;;;;;;;9.07;59.68;100937.14;462651;112;922523;-77
2021/10/18 02:43:29;;;;;;;10.09;9.19;;;;;;;9.07;59.74;100931.70;463294;113;931182;-78
2021/10/18 02:44:33;;;;;;;9.31;8.56;;;;;;;9.09;59.83;100934.23;461623;113;923042;-77
2021/10/18 02:45:36;;;;;;;10.17;9.23;;;;;;;9.09;59.79;100940.52;462998;113;922620;-77
2021/10/18 02:46:40;;;;;;;10.06;9.13;;;;;;;9.08;59.73;100941.55;463219;113;930485;-79
2021/10/18 02:47:43;;;;;;;10.36;9.51;;;;;;;9.07;59.70;100942.58;461494;113;922809;-78
2021/10/18 02:48:46;;;;;;;10.23;9.13;;;;;;;9.06;59.74;100940.89;462804;113;930485;-79
2021/10/18 02:49:50;;;;;;;9.99;8.70;;;;;;;9.03;59.74;100938.58;462277;113;923159;-78
2021/10/18 02:50:53;;;;;;;9.77;8.87;;;;;;;9.02;59.79;100933.33;463760;113;922879;-79
2021/10/18 02:51:57;;;;;;;9.91;9.11;;;;;;;9.01;59.80;100937.92;462548;113;923000;-78
2021/10/18 02:53:00;;;;;;;9.76;8.81;;;;;;;8.99;59.81;100939.14;461381;114;930708;-77
2021/10/18 02:54:05;;;;;;;10.88;9.81;;;;;;;8.96;59.85;100940.39;460646;114;923126;-79
2021/10/18 02:55:09;;;;;;;9.78;8.86;;;;;;;8.93;59.83;100935.32;459945;114;922786;-78
2021/10/18 02:56:13;;;;;;;9.39;8.49;;;;;;;8.92;59.87;100938.26;460246;114;923177;-78
2021/10/18 02:57:16;;;;;;;9.24;8.44;;;;;;;8.91;59.89;100942.01;459930;114;923152;-78
2021/10/18 02:58:20;;;;;;;9.26;8.36;;;;;;;8.89;59.88;100938.63;460575;114;923347;-78
2021/10/18 02:59:23;;;;;;;9.94;9.04;;;;;;;8.88;59.91;100945.10;460212;114;930521;-77
2021/10/18 03:00:27;;;;;;;9.98;8.55;;;;;;;8.85;59.95;100938.19;459824;113;922495;-78
2021/10/18 03:01:30;;;;;;;8.83;8.01;;;;;;;8.85;59.94;100942.78;459893;114;930661;-78
2021/10/18 03:02:34;;;;;;;12.28;8.46;;;;;;;8.81;59.97;100936.06;459261;113;930599;-78
2021/10/18 03:03:38;;;;;;;10.51;9.21;;;;;;;8.81;59.97;100936.06;460422;114;922825;-77
2021/10/18 03:04:41;;;;;;;8.70;7.92;;;;;;;8.79;59.86;100933.53;460444;114;930548;-79
2021/10/18 03:05:45;;;;;;;10.35;9.11;;;;;;;8.75;59.84;100938.52;458994;113;930666;-78
2021/10/18 03:06:48;;;;;;;9.59;8.34;;;;;;;8.74;59.87;100944.99;458483;113;930505;-79
2021/10/18 03:07:52;;;;;;;9.81;8.88;;;;;;;8.73;59.91;100940.59;458151;114;930491;-78
2021/10/18 03:08:56;;;;;;;11.03;8.48;;;;;;;8.72;59.86;100940.77;461675;113;922915;-78
2021/10/18 03:09:59;;;;;;;8.70;7.87;;;;;;;8.69;59.79;100942.02;461215;114;922704;-78
2021/10/18 03:11:03;;;;;;;13.44;9.00;;;;;;;8.68;59.73;100939.48;461214;114;930519;-79
2021/10/18 03:12:06;;;;;;;8.76;7.82;;;;;;;8.65;59.73;100940.73;460761;114;928605;-79
2021/10/18 03:13:11;;;;;;;12.68;8.98;;;;;;;8.61;59.70;100936.69;461680;113;922645;-78
2021/10/18 03:14:14;;;;;;;9.88;8.92;;;;;;;8.58;59.66;100934.38;460798;113;922703;-78
2021/10/18 03:15:18;;;;;;;8.47;7.69;;;;;;;8.57;59.66;100938.13;460693;114;930546;-79
2021/10/18 03:16:21;;;;;;;9.25;8.52;;;;;;;8.56;59.61;100949.17;459765;114;930504;-78
2021/10/18 03:17:26;;;;;;;10.78;8.02;;;;;;;8.53;59.59;100944.98;460774;114;930493;-77
2021/10/18 03:18:30;;;;;;;9.71;8.76;;;;;;;8.50;59.58;100950.79;460818;113;930598;-78
2021/10/18 03:19:33;;;;;;;9.26;8.31;;;;;;;8.48;59.58;100952.03;451081;115;930601;-79
2021/10/18 03:20:37;;;;;;;9.53;8.53;;;;;;;8.44;59.53;100950.70;444217;118;930596;-79
2021/10/18 03:21:40;;;;;;;9.41;8.40;;;;;;;8.41;59.52;100949.23;441359;119;922629;-78
2021/10/18 03:22:43;;;;;;;8.86;8.15;;;;;;;8.39;59.43;100945.86;443453;117;930489;-78
2021/10/18 03:23:47;;;;;;;9.81;9.01;;;;;;;8.35;59.44;100945.41;450581;116;922533;-79
2021/10/18 03:24:50;;;;;;;9.90;9.14;;;;;;;8.33;59.44;100946.62;451947;116;922687;-78
2021/10/18 03:25:54;;;;;;;9.04;7.88;;;;;;;8.28;59.42;100949.88;445344;116;922975;-77
2021/10/18 03:26:57;;;;;;;9.57;8.79;;;;;;;8.27;59.44;100950.09;445882;118;930611;-79
2021/10/18 03:28:05;;;;;;;9.40;8.60;;;;;;;8.23;59.50;100949.61;444398;117;930512;-79
2021/10/18 03:29:08;;;;;;;8.87;8.12;;;;;;;8.22;59.52;100947.92;440175;118;922635;-78
2021/10/18 03:30:14;;;;;;;8.73;8.03;;;;;;;8.21;59.53;100951.70;440200;118;923264;-78
2021/10/18 03:31:17;;;;;;;9.21;8.28;;;;;;;8.20;59.55;100939.14;439881;118;922810;-78
2021/10/18 03:32:21;;;;;;;9.29;8.55;;;;;;;8.19;59.54;100948.32;440759;118;930541;-78
2021/10/18 03:33:36;;;;;;;9.99;9.12;;;;;;;8.18;59.54;100951.22;444776;118;923197;-78
2021/10/18 03:34:40;;;;;;;9.09;8.34;;;;;;;8.17;59.56;100944.09;446026;117;922662;-77
2021/10/18 03:35:43;;;;;;;10.17;9.37;;;;;;;8.15;59.60;100948.89;451245;115;922632;-77
2021/10/18 03:36:47;;;;;;;10.31;9.31;;;;;;;8.11;59.66;100944.85;451398;115;930462;-78
2021/10/18 03:37:51;;;;;;;9.82;8.95;;;;;;;8.08;59.69;100948.80;451794;115;924052;-78
2021/10/18 03:38:56;;;;;;;13.99;9.39;;;;;;;8.06;59.74;100947.30;451173;115;922980;-78
2021/10/18 03:40:00;;;;;;;10.39;9.35;;;;;;;8.04;59.77;100954.81;451273;115;922537;-78
2021/10/18 03:41:03;;;;;;;9.56;8.63;;;;;;;8.01;59.81;100952.45;452175;115;922959;-77
2021/10/18 03:42:07;;;;;;;10.17;9.27;;;;;;;7.98;59.80;100952.84;450335;115;922945;-78
2021/10/18 03:43:11;;;;;;;10.99;9.67;;;;;;;7.94;59.86;100945.06;442532;116;922618;-78
2021/10/18 03:44:14;;;;;;;9.71;8.85;;;;;;;7.92;59.91;100949.02;441999;116;922762;-78
2021/10/18 03:45:18;;;;;;;9.18;8.41;;;;;;;7.90;59.95;100943.77;445944;118;922755;-77
2021/10/18 03:46:22;;;;;;;9.70;8.82;;;;;;;7.88;59.99;100945.81;441399;117;922648;-79
2021/10/18 03:47:25;;;;;;;9.73;8.84;;;;;;;7.88;59.95;100945.00;441301;118;922889;-78
2021/10/18 03:48:28;;;;;;;10.58;9.46;;;;;;;7.86;59.95;100945.18;442410;119;931050;-79
2021/10/18 03:49:32;;;;;;;8.98;8.16;;;;;;;7.85;59.91;100948.08;449527;115;923264;-78
2021/10/18 03:50:36;;;;;;;9.89;8.70;;;;;;;7.83;59.94;100941.98;450156;115;922529;-78
2021/10/18 03:51:40;;;;;;;10.05;9.28;;;;;;;7.80;59.98;100943.22;448670;115;922678;-77
2021/10/18 03:52:43;;;;;;;10.41;9.51;;;;;;;7.79;60.08;100948.82;443335;118;930420;-78
2021/10/18 03:53:47;;;;;;;12.03;10.86;;;;;;;7.78;60.08;100939.84;450597;116;922516;-77
2021/10/18 03:54:50;;;;;;;11.96;10.92;;;;;;;7.76;60.09;100939.20;450869;116;923073;-78
2021/10/18 03:55:54;;;;;;;12.46;11.32;;;;;;;7.77;60.07;100945.48;451311;116;930466;-77
2021/10/18 03:56:57;;;;;;;11.84;10.81;;;;;;;7.76;60.13;100946.50;450866;116;922504;-76
2021/10/18 03:58:01;;;;;;;12.59;11.32;;;;;;;7.74;60.11;100941.25;451648;116;922503;-78
2021/10/18 03:59:04;;;;;;;13.11;11.84;;;;;;;7.74;60.11;100943.12;440840;118;930628;-77
2021/10/18 04:00:09;;;;;;;15.04;13.72;;;;;;;7.73;60.11;100947.70;442443;119;928800;-78
2021/10/18 04:01:17;;;;;;;15.26;13.69;;;;;;;7.74;60.11;100948.55;448537;115;930345;-79
2021/10/18 04:02:21;;;;;;;18.29;13.41;;;;;;;7.73;60.11;100947.70;450029;115;923155;-78
2021/10/18 04:03:25;;;;;;;15.46;14.06;;;;;;;7.73;60.08;100941.42;440798;118;930351;-77
2021/10/18 04:04:28;;;;;;;15.26;13.94;;;;;;;7.72;60.04;100939.77;442279;119;922601;-78
2021/10/18 04:05:32;;;;;;;22.74;15.00;;;;;;;7.71;60.10;100955.20;449790;115;922964;-77
2021/10/18 04:06:36;;;;;;;16.87;15.17;;;;;;;7.69;60.12;100949.11;439266;120;922621;-78
2021/10/18 04:07:45;;;;;;;17.54;15.08;;;;;;;7.66;60.12;100949.50;445396;116;922734;-79
2021/10/18 04:08:49;;;;;;;17.62;16.01;;;;;;;7.66;60.11;100946.79;450577;115;930678;-79
2021/10/18 04:09:51;;;;;;;19.77;16.44;;;;;;;7.65;60.13;100955.11;449298;117;922475;-78
2021/10/18 04:10:54;;;;;;;18.20;16.27;;;;;;;7.63;60.14;100951.73;438898;119;923137;-79
2021/10/18 04:11:58;;;;;;;18.39;16.61;;;;;;;7.64;60.09;100956.13;447283;116;922750;-77
2021/10/18 04:13:02;;;;;;;17.24;15.02;;;;;;;7.63;60.12;100954.44;439385;119;922672;-78
2021/10/18 04:14:06;;;;;;;18.19;15.90;;;;;;;7.62;60.10;100950.88;450969;115;922351;-76
2021/10/18 04:15:11;;;;;;;17.29;15.45;;;;;;;7.63;60.05;100957.16;451893;116;922318;-77
2021/10/18 04:16:15;;;;;;;19.48;15.82;;;;;;;7.63;60.06;100959.87;450236;116;922646;-77
2021/10/18 04:17:18;;;;;;;19.86;15.61;;;;;;;7.63;60.05;100960.72;450583;116;923012;-78
2021/10/18 04:18:22;;;;;;;15.85;14.31;;;;;;;7.63;60.01;100960.72;451025;116;922516;-78
2021/10/18 04:19:25;;;;;;;16.12;14.19;;;;;;;7.63;59.98;100962.58;451237;116;923085;-77
2021/10/18 04:20:30;;;;;;;16.33;14.03;;;;;;;7.63;59.97;100963.42;451331;115;922808;-77
2021/10/18 04:21:34;;;;;;;14.86;13.30;;;;;;;7.63;59.91;100963.42;451580;116;922701;-77
2021/10/18 04:22:37;;;;;;;15.01;13.27;;;;;;;7.64;59.88;100965.12;453288;115;922870;-78
2021/10/18 04:23:41;;;;;;;14.81;13.43;;;;;;;7.64;59.87;100975.97;452370;116;924032;-79
2021/10/18 04:24:44;;;;;;;15.08;13.58;;;;;;;7.64;59.86;100967.83;444628;118;930512;-79
2021/10/18 04:25:48;;;;;;;15.75;14.02;;;;;;;7.66;59.86;100968.50;444637;117;922845;-78
2021/10/18 04:26:51;;;;;;;15.16;13.06;;;;;;;7.66;59.82;100967.66;442666;119;922504;-78
2021/10/18 04:27:55;;;;;;;13.93;12.60;;;;;;;7.68;59.80;100971.00;447765;116;930235;-79
2021/10/18 04:28:58;;;;;;;14.28;12.54;;;;;;;7.66;59.75;100979.36;441427;119;922457;-78
2021/10/18 04:30:02;;;;;;;14.18;12.89;;;;;;;7.66;59.76;100967.66;450069;117;922914;-77
2021/10/18 04:31:06;;;;;;;13.53;12.28;;;;;;;7.64;59.73;100970.55;451324;116;930351;-78
2021/10/18 04:32:09;;;;;;;18.50;12.28;;;;;;;7.62;59.77;100972.59;438873;118;922677;-79
2021/10/18 04:33:13;;;;;;;13.78;12.49;;;;;;;7.61;59.77;100978.23;440315;118;930374;-78
2021/10/18 04:34:16;;;;;;;21.17;12.10;;;;;;;7.58;59.81;100975.87;451100;116;922761;-78
2021/10/18 04:35:20;;;;;;;13.34;11.81;;;;;;;7.55;59.82;100980.63;451770;116;930500;-77
2021/10/18 04:36:24;;;;;;;13.04;11.71;;;;;;;7.55;59.90;100977.91;450999;116;922728;-78
2021/10/18 04:37:27;;;;;;;13.02;11.69;;;;;;;7.55;59.92;100979.81;450719;116;923672;-79
2021/10/18 04:38:31;;;;;;;12.63;11.52;;;;;;;7.55;59.94;100983.34;451368;117;923018;-78
2021/10/18 04:39:34;;;;;;;15.00;11.98;;;;;;;7.57;59.98;100979.60;450462;116;923018;-77
2021/10/18 04:40:38;;;;;;;16.37;11.98;;;;;;;7.57;60.00;100985.03;443706;118;922495;-79
2021/10/18 04:41:41;;;;;;;14.40;11.89;;;;;;;7.56;59.99;100984.19;450792;114;925184;-79
2021/10/18 04:42:45;;;;;;;13.36;11.51;;;;;;;7.54;59.96;100987.11;459683;113;922938;-78
2021/10/18 04:43:52;;;;;;;17.09;11.54;;;;;;;7.54;59.96;100994.41;459715;114;930255;-79
2021/10/18 04:44:55;;;;;;;18.63;11.65;;;;;;;7.52;60.03;100991.02;459603;114;922616;-78
2021/10/18 04:45:58;;;;;;;14.24;12.35;;;;;;;7.52;60.07;100991.02;460301;114;930323;-79
2021/10/18 04:47:02;;;;;;;17.38;11.54;;;;;;;7.51;60.07;100989.33;459954;114;922678;-79
2021/10/18 04:48:06;;;;;;;13.15;10.82;;;;;;;7.52;60.10;100993.73;461027;114;922529;-78
2021/10/18 04:49:09;;;;;;;14.97;12.15;;;;;;;7.53;60.16;100992.70;460289;114;921996;-79
2021/10/18 04:50:14;;;;;;;13.27;11.09;;;;;;;7.53;60.21;100990.00;459009;113;922552;-78
2021/10/18 04:51:17;;;;;;;15.73;11.67;;;;;;;7.55;60.24;101001.52;459602;113;923535;-79
2021/10/18 04:52:20;;;;;;;20.23;11.23;;;;;;;7.57;60.25;100988.59;460028;113;922245;-79
2021/10/18 04:53:24;;;;;;;12.79;11.58;;;;;;;7.58;60.25;100997.58;451225;116;922815;-78